• Join FlightAware (Why Join?)
  • Login
  • US Flag 
03:35PM EDT


 

Airport Tracker/Info


-or-


 

Live Flight TrackerFlight Track Log ✈ VNR104 ✈ 13-May-2013 ✈ KAUS - KDWH

Flight Track Log - Related Links

Times and Time Zones

All times are in EDT time to prevent confusion due to time zone crossing. See the VNR104 flight status page for this flight to view local times or setup timezone preferences in your user account.

Time Position Orientation Groundspeed Altitude Reporting Facility
EDT Latitude Longitude Course Direction KTS MPH feet Rate Location/Type
12:34AM 30.1831 -97.4908 65° Northeast 217 250 7,900  Level Houston Center
12:35AM 30.2111 -97.4256 64° Northeast 223 257 9,500 1,260 Climbing Houston Center
12:36AM 30.3539 -97.3468 95° East  Level FlightAware Approximate
12:36AM 30.2417 -97.3483 65° Northeast 261 300 10,500  Level Houston Center
12:37AM 30.3500 -97.2607 90° East  Level FlightAware Approximate
12:37AM 30.2758 -97.2656 64° Northeast 282 325 11,600  Level Houston Center
12:38AM 30.3500 -97.1745 90° East  Level FlightAware Approximate
12:38AM 30.3106 -97.1789 65° Northeast 291 335 12,600  Level Houston Center
12:39AM 30.3450 -97.0922 65° Northeast 295 339 13,700 1,020 Climbing Houston Center
12:40AM 30.3300 -96.9992 101° East 291 335 14,700 1,020 Climbing Houston Center
12:41AM 30.3131 -96.9058 102° East 295 339 15,800 1,020 Climbing Houston Center
12:42AM 30.2956 -96.8094 102° East 300 345 16,800 600 Climbing Houston Center
12:42AM 30.2847 -96.7553 103° East 304 350 16,800 60 Level Houston Center
12:43AM 30.2769 -96.7106 101° East 312 359 16,900  Climbing Houston Center
12:43AM 30.2725 -96.6817 100° East 320 368 16,800  Descending Houston Center
12:44AM 30.2572 -96.6050 103° East 328 377 16,900  Climbing Houston Center
12:45AM 30.2378 -96.4964 102° East 339 390 16,800 -960 Descending Houston Center
12:46AM 30.2197 -96.3936 101° East 328 377 15,000 -1,800 Descending Houston Center
12:47AM 30.2025 -96.2958 101° East 312 359 13,200 -1,860 Descending Houston Center
12:48AM 30.1969 -96.2019 94° East 287 330 11,300 -1,860 Descending Houston Center
12:49AM 30.1906 -96.1086 95° East 292 336 9,500 -1,800 Descending Houston Center
12:50AM 30.1853 -96.0147 94° East 289 333 7,700 -1,560 Descending Houston Center
12:51AM 30.1792 -95.9469 96° East 270 311 6,400 -1,440 Descending Houston Center
12:52AM 30.1722 -95.8694 96° East 250 288 4,800 -1,200 Descending Houston Center
12:53AM 30.1689 -95.7889 93° East 250 288 4,000 -840 Descending Houston Center
12:54AM 30.1614 -95.7100 96° East 247 284 3,200 -540 Descending Houston Center
12:55AM 30.1572 -95.6336 94° East 243 280 3,000 -600 Descending Houston Center
12:56AM 30.1500 -95.5725 98° East 205 236 2,000 -1,080 Descending Houston Center
12:57AM 30.1086 -95.5600 165° South 170 196 900 -900 Descending Houston Center
12:58AM 30.0797 -95.5547 171° South 136 157 300 -600 Descending Houston Center
01:00AM 30.0618 -95.5528 221° Southwest  Level Estimated